sensor_id;sensor_type;location;lat;lon;timestamp;P1;durP1;ratioP1;P2;durP2;ratioP2
25365;SDS011;13315;48.274;-1.900;2022-07-24T00:01:58;886.45;;;785.25;;
25365;SDS011;13315;48.274;-1.900;2022-07-24T00:04:24;917.72;;;805.90;;
25365;SDS011;13315;48.274;-1.900;2022-07-24T00:06:51;910.80;;;793.20;;
25365;SDS011;13315;48.274;-1.900;2022-07-24T00:09:17;916.88;;;792.88;;
25365;SDS011;13315;48.274;-1.900;2022-07-24T00:11:43;903.05;;;774.13;;
25365;SDS011;13315;48.274;-1.900;2022-07-24T00:14:09;877.95;;;760.17;;
25365;SDS011;13315;48.274;-1.900;2022-07-24T00:16:36;788.83;;;611.72;;
25365;SDS011;13315;48.274;-1.900;2022-07-24T00:19:02;745.00;;;555.65;;
25365;SDS011;13315;48.274;-1.900;2022-07-24T00:21:28;755.92;;;550.35;;
25365;SDS011;13315;48.274;-1.900;2022-07-24T00:23:54;799.20;;;589.05;;
25365;SDS011;13315;48.274;-1.900;2022-07-24T00:26:20;803.00;;;591.55;;
25365;SDS011;13315;48.274;-1.900;2022-07-24T00:28:46;796.75;;;576.47;;
25365;SDS011;13315;48.274;-1.900;2022-07-24T00:31:13;799.67;;;601.38;;
25365;SDS011;13315;48.274;-1.900;2022-07-24T00:33:41;708.58;;;485.65;;
25365;SDS011;13315;48.274;-1.900;2022-07-24T00:36:07;742.35;;;523.85;;
25365;SDS011;13315;48.274;-1.900;2022-07-24T00:38:33;761.80;;;564.95;;
25365;SDS011;13315;48.274;-1.900;2022-07-24T00:40:59;779.35;;;599.25;;
25365;SDS011;13315;48.274;-1.900;2022-07-24T00:43:25;823.95;;;631.22;;
25365;SDS011;13315;48.274;-1.900;2022-07-24T00:45:51;827.72;;;644.20;;
25365;SDS011;13315;48.274;-1.900;2022-07-24T00:48:18;855.55;;;696.90;;
25365;SDS011;13315;48.274;-1.900;2022-07-24T00:50:44;844.30;;;696.63;;
25365;SDS011;13315;48.274;-1.900;2022-07-24T00:53:10;832.00;;;689.05;;
25365;SDS011;13315;48.274;-1.900;2022-07-24T00:55:36;839.22;;;698.47;;
25365;SDS011;13315;48.274;-1.900;2022-07-24T00:58:03;835.92;;;690.72;;
25365;SDS011;13315;48.274;-1.900;2022-07-24T01:00:29;879.05;;;718.55;;
25365;SDS011;13315;48.274;-1.900;2022-07-24T01:02:55;860.33;;;706.40;;
25365;SDS011;13315;48.274;-1.900;2022-07-24T01:05:21;857.40;;;704.50;;
25365;SDS011;13315;48.274;-1.900;2022-07-24T01:07:48;867.78;;;719.13;;
25365;SDS011;13315;48.274;-1.900;2022-07-24T01:10:14;850.58;;;710.05;;
25365;SDS011;13315;48.274;-1.900;2022-07-24T01:12:41;844.03;;;712.72;;
25365;SDS011;13315;48.274;-1.900;2022-07-24T01:15:08;850.30;;;719.28;;
25365;SDS011;13315;48.274;-1.900;2022-07-24T01:17:36;839.95;;;704.03;;
25365;SDS011;13315;48.274;-1.900;2022-07-24T01:20:06;850.15;;;724.05;;
25365;SDS011;13315;48.274;-1.900;2022-07-24T01:22:32;849.67;;;725.95;;
25365;SDS011;13315;48.274;-1.900;2022-07-24T01:24:58;868.00;;;706.72;;
25365;SDS011;13315;48.274;-1.900;2022-07-24T01:27:24;871.88;;;703.28;;
25365;SDS011;13315;48.274;-1.900;2022-07-24T01:29:51;858.78;;;691.05;;
25365;SDS011;13315;48.274;-1.900;2022-07-24T01:32:17;864.10;;;698.20;;
25365;SDS011;13315;48.274;-1.900;2022-07-24T01:34:43;833.17;;;682.83;;
25365;SDS011;13315;48.274;-1.900;2022-07-24T01:37:10;835.67;;;682.20;;
25365;SDS011;13315;48.274;-1.900;2022-07-24T01:39:36;840.80;;;702.78;;
25365;SDS011;13315;48.274;-1.900;2022-07-24T01:42:02;843.42;;;704.58;;
25365;SDS011;13315;48.274;-1.900;2022-07-24T01:44:28;867.45;;;705.10;;
25365;SDS011;13315;48.274;-1.900;2022-07-24T01:46:54;873.55;;;718.60;;
25365;SDS011;13315;48.274;-1.900;2022-07-24T01:49:21;873.22;;;710.60;;
25365;SDS011;13315;48.274;-1.900;2022-07-24T01:51:47;850.80;;;696.40;;
25365;SDS011;13315;48.274;-1.900;2022-07-24T01:54:13;837.65;;;698.67;;
25365;SDS011;13315;48.274;-1.900;2022-07-24T01:56:39;845.15;;;713.20;;
25365;SDS011;13315;48.274;-1.900;2022-07-24T01:59:05;841.28;;;702.83;;
25365;SDS011;13315;48.274;-1.900;2022-07-24T02:01:32;872.45;;;717.33;;
25365;SDS011;13315;48.274;-1.900;2022-07-24T02:03:59;879.60;;;732.47;;
25365;SDS011;13315;48.274;-1.900;2022-07-24T02:06:25;866.67;;;711.50;;
25365;SDS011;13315;48.274;-1.900;2022-07-24T02:08:51;871.40;;;720.33;;
25365;SDS011;13315;48.274;-1.900;2022-07-24T02:11:17;850.33;;;711.45;;
25365;SDS011;13315;48.274;-1.900;2022-07-24T02:13:44;840.92;;;696.53;;
25365;SDS011;13315;48.274;-1.900;2022-07-24T02:16:10;838.00;;;692.78;;
25365;SDS011;13315;48.274;-1.900;2022-07-24T02:18:37;847.00;;;711.95;;
25365;SDS011;13315;48.274;-1.900;2022-07-24T02:21:03;880.55;;;734.70;;
25365;SDS011;13315;48.274;-1.900;2022-07-24T02:23:29;873.80;;;723.30;;
25365;SDS011;13315;48.274;-1.900;2022-07-24T02:25:55;878.22;;;733.28;;
25365;SDS011;13315;48.274;-1.900;2022-07-24T02:28:21;876.63;;;727.88;;
25365;SDS011;13315;48.274;-1.900;2022-07-24T02:30:47;843.85;;;708.15;;
25365;SDS011;13315;48.274;-1.900;2022-07-24T02:33:14;845.17;;;714.88;;
25365;SDS011;13315;48.274;-1.900;2022-07-24T02:35:40;842.22;;;707.47;;
25365;SDS011;13315;48.274;-1.900;2022-07-24T02:38:06;842.55;;;702.30;;
25365;SDS011;13315;48.274;-1.900;2022-07-24T02:40:32;875.55;;;720.50;;
25365;SDS011;13315;48.274;-1.900;2022-07-24T02:42:59;861.65;;;718.70;;
25365;SDS011;13315;48.274;-1.900;2022-07-24T02:45:25;858.50;;;702.17;;
25365;SDS011;13315;48.274;-1.900;2022-07-24T02:47:52;854.33;;;704.10;;
25365;SDS011;13315;48.274;-1.900;2022-07-24T02:50:20;843.60;;;699.70;;
25365;SDS011;13315;48.274;-1.900;2022-07-24T02:52:46;836.35;;;685.50;;
25365;SDS011;13315;48.274;-1.900;2022-07-24T02:55:13;843.10;;;701.65;;
25365;SDS011;13315;48.274;-1.900;2022-07-24T02:57:40;839.63;;;694.20;;
25365;SDS011;13315;48.274;-1.900;2022-07-24T03:00:07;888.15;;;743.63;;
25365;SDS011;13315;48.274;-1.900;2022-07-24T03:02:34;870.10;;;724.03;;
25365;SDS011;13315;48.274;-1.900;2022-07-24T03:05:00;864.42;;;706.90;;
25365;SDS011;13315;48.274;-1.900;2022-07-24T03:07:26;854.90;;;695.53;;
25365;SDS011;13315;48.274;-1.900;2022-07-24T03:09:53;847.75;;;686.10;;
25365;SDS011;13315;48.274;-1.900;2022-07-24T03:12:19;838.58;;;694.58;;
25365;SDS011;13315;48.274;-1.900;2022-07-24T03:14:45;837.35;;;688.40;;
25365;SDS011;13315;48.274;-1.900;2022-07-24T03:17:11;839.00;;;696.53;;
25365;SDS011;13315;48.274;-1.900;2022-07-24T03:19:37;874.67;;;723.53;;
25365;SDS011;13315;48.274;-1.900;2022-07-24T03:22:03;862.20;;;708.97;;
25365;SDS011;13315;48.274;-1.900;2022-07-24T03:24:29;864.22;;;696.20;;
25365;SDS011;13315;48.274;-1.900;2022-07-24T03:26:55;869.47;;;700.47;;
25365;SDS011;13315;48.274;-1.900;2022-07-24T03:29:21;844.15;;;688.03;;
25365;SDS011;13315;48.274;-1.900;2022-07-24T03:31:47;835.70;;;671.42;;
25365;SDS011;13315;48.274;-1.900;2022-07-24T03:34:14;834.53;;;677.25;;
25365;SDS011;13315;48.274;-1.900;2022-07-24T03:36:40;835.60;;;679.08;;
25365;SDS011;13315;48.274;-1.900;2022-07-24T03:39:06;858.35;;;679.78;;
25365;SDS011;13315;48.274;-1.900;2022-07-24T03:41:32;852.10;;;678.90;;
25365;SDS011;13315;48.274;-1.900;2022-07-24T03:43:58;860.80;;;691.72;;
25365;SDS011;13315;48.274;-1.900;2022-07-24T03:46:25;860.70;;;698.10;;
25365;SDS011;13315;48.274;-1.900;2022-07-24T03:48:53;851.17;;;696.75;;
25365;SDS011;13315;48.274;-1.900;2022-07-24T03:51:19;847.08;;;699.53;;
25365;SDS011;13315;48.274;-1.900;2022-07-24T03:53:46;847.80;;;704.25;;
25365;SDS011;13315;48.274;-1.900;2022-07-24T03:56:12;852.83;;;710.08;;
25365;SDS011;13315;48.274;-1.900;2022-07-24T03:58:38;887.70;;;733.42;;
25365;SDS011;13315;48.274;-1.900;2022-07-24T04:01:04;886.80;;;728.88;;
25365;SDS011;13315;48.274;-1.900;2022-07-24T04:03:30;881.95;;;720.47;;
25365;SDS011;13315;48.274;-1.900;2022-07-24T04:05:56;891.25;;;740.90;;
25365;SDS011;13315;48.274;-1.900;2022-07-24T04:08:22;851.38;;;706.40;;
25365;SDS011;13315;48.274;-1.900;2022-07-24T04:10:49;853.60;;;709.30;;
25365;SDS011;13315;48.274;-1.900;2022-07-24T04:13:21;844.67;;;691.45;;
25365;SDS011;13315;48.274;-1.900;2022-07-24T04:15:47;846.80;;;700.55;;
25365;SDS011;13315;48.274;-1.900;2022-07-24T04:18:13;845.78;;;690.88;;
25365;SDS011;13315;48.274;-1.900;2022-07-24T04:20:39;887.40;;;719.92;;
25365;SDS011;13315;48.274;-1.900;2022-07-24T04:23:05;886.83;;;726.95;;
25365;SDS011;13315;48.274;-1.900;2022-07-24T04:25:31;883.92;;;720.17;;
25365;SDS011;13315;48.274;-1.900;2022-07-24T04:28:00;868.78;;;697.92;;
25365;SDS011;13315;48.274;-1.900;2022-07-24T04:30:26;868.35;;;706.78;;
25365;SDS011;13315;48.274;-1.900;2022-07-24T04:32:53;855.13;;;698.83;;
25365;SDS011;13315;48.274;-1.900;2022-07-24T04:35:19;849.92;;;683.60;;
25365;SDS011;13315;48.274;-1.900;2022-07-24T04:37:45;849.13;;;689.25;;
25365;SDS011;13315;48.274;-1.900;2022-07-24T04:40:12;896.00;;;722.53;;
25365;SDS011;13315;48.274;-1.900;2022-07-24T04:42:38;884.92;;;716.15;;
25365;SDS011;13315;48.274;-1.900;2022-07-24T04:45:05;897.28;;;727.25;;
25365;SDS011;13315;48.274;-1.900;2022-07-24T04:47:33;907.13;;;735.58;;
25365;SDS011;13315;48.274;-1.900;2022-07-24T04:49:59;913.92;;;742.97;;
25365;SDS011;13315;48.274;-1.900;2022-07-24T04:52:25;887.72;;;719.67;;
25365;SDS011;13315;48.274;-1.900;2022-07-24T04:54:51;881.00;;;725.15;;
25365;SDS011;13315;48.274;-1.900;2022-07-24T04:57:17;878.38;;;711.85;;
25365;SDS011;13315;48.274;-1.900;2022-07-24T04:59:43;900.00;;;729.30;;
25365;SDS011;13315;48.274;-1.900;2022-07-24T05:02:09;908.95;;;736.15;;
25365;SDS011;13315;48.274;-1.900;2022-07-24T05:04:36;863.42;;;674.40;;
25365;SDS011;13315;48.274;-1.900;2022-07-24T05:07:02;883.67;;;707.63;;
25365;SDS011;13315;48.274;-1.900;2022-07-24T05:09:28;874.40;;;713.58;;
25365;SDS011;13315;48.274;-1.900;2022-07-24T05:11:55;866.45;;;706.83;;
25365;SDS011;13315;48.274;-1.900;2022-07-24T05:14:21;860.88;;;702.55;;
25365;SDS011;13315;48.274;-1.900;2022-07-24T05:16:47;868.80;;;708.83;;
25365;SDS011;13315;48.274;-1.900;2022-07-24T05:19:13;892.17;;;727.75;;
25365;SDS011;13315;48.274;-1.900;2022-07-24T05:21:39;903.97;;;741.97;;
25365;SDS011;13315;48.274;-1.900;2022-07-24T05:24:06;896.80;;;732.17;;
25365;SDS011;13315;48.274;-1.900;2022-07-24T05:26:32;902.00;;;737.47;;
25365;SDS011;13315;48.274;-1.900;2022-07-24T05:28:58;882.45;;;726.22;;
25365;SDS011;13315;48.274;-1.900;2022-07-24T05:31:25;878.75;;;727.38;;
25365;SDS011;13315;48.274;-1.900;2022-07-24T05:33:52;882.65;;;726.45;;
25365;SDS011;13315;48.274;-1.900;2022-07-24T05:36:18;881.83;;;729.13;;
25365;SDS011;13315;48.274;-1.900;2022-07-24T05:38:44;920.03;;;757.33;;
25365;SDS011;13315;48.274;-1.900;2022-07-24T05:41:11;910.58;;;747.10;;
25365;SDS011;13315;48.274;-1.900;2022-07-24T05:43:37;917.58;;;755.58;;
25365;SDS011;13315;48.274;-1.900;2022-07-24T05:46:04;912.95;;;745.78;;
25365;SDS011;13315;48.274;-1.900;2022-07-24T05:48:30;897.97;;;741.55;;
25365;SDS011;13315;48.274;-1.900;2022-07-24T05:50:56;890.17;;;734.17;;
25365;SDS011;13315;48.274;-1.900;2022-07-24T05:53:22;899.88;;;740.60;;
25365;SDS011;13315;48.274;-1.900;2022-07-24T05:55:49;895.28;;;750.50;;
25365;SDS011;13315;48.274;-1.900;2022-07-24T05:58:15;928.38;;;766.42;;
25365;SDS011;13315;48.274;-1.900;2022-07-24T06:00:41;931.92;;;760.47;;
25365;SDS011;13315;48.274;-1.900;2022-07-24T06:03:07;924.72;;;760.20;;
25365;SDS011;13315;48.274;-1.900;2022-07-24T06:05:34;926.47;;;758.65;;
25365;SDS011;13315;48.274;-1.900;2022-07-24T06:08:00;905.35;;;750.90;;
25365;SDS011;13315;48.274;-1.900;2022-07-24T06:10:26;902.55;;;749.00;;
25365;SDS011;13315;48.274;-1.900;2022-07-24T06:12:52;909.28;;;751.47;;
25365;SDS011;13315;48.274;-1.900;2022-07-24T06:15:18;896.97;;;751.03;;
25365;SDS011;13315;48.274;-1.900;2022-07-24T06:17:45;934.63;;;771.47;;
25365;SDS011;13315;48.274;-1.900;2022-07-24T06:20:11;938.60;;;772.67;;
25365;SDS011;13315;48.274;-1.900;2022-07-24T06:22:38;939.17;;;776.50;;
25365;SDS011;13315;48.274;-1.900;2022-07-24T06:25:05;939.65;;;774.80;;
25365;SDS011;13315;48.274;-1.900;2022-07-24T06:27:31;917.92;;;764.72;;
25365;SDS011;13315;48.274;-1.900;2022-07-24T06:29:57;917.05;;;762.20;;
25365;SDS011;13315;48.274;-1.900;2022-07-24T06:32:23;922.70;;;770.80;;
25365;SDS011;13315;48.274;-1.900;2022-07-24T06:34:49;927.03;;;764.80;;
25365;SDS011;13315;48.274;-1.900;2022-07-24T06:37:15;942.75;;;773.03;;
25365;SDS011;13315;48.274;-1.900;2022-07-24T06:39:42;950.38;;;782.53;;
25365;SDS011;13315;48.274;-1.900;2022-07-24T06:42:08;947.25;;;781.75;;
25365;SDS011;13315;48.274;-1.900;2022-07-24T06:44:34;937.97;;;780.53;;
25365;SDS011;13315;48.274;-1.900;2022-07-24T06:47:01;921.10;;;764.75;;
25365;SDS011;13315;48.274;-1.900;2022-07-24T06:49:27;928.10;;;775.67;;
25365;SDS011;13315;48.274;-1.900;2022-07-24T06:51:53;930.17;;;772.60;;
25365;SDS011;13315;48.274;-1.900;2022-07-24T06:54:19;962.03;;;797.92;;
25365;SDS011;13315;48.274;-1.900;2022-07-24T06:56:45;954.75;;;791.67;;
25365;SDS011;13315;48.274;-1.900;2022-07-24T06:59:11;954.00;;;799.58;;
25365;SDS011;13315;48.274;-1.900;2022-07-24T07:01:37;952.53;;;798.10;;
25365;SDS011;13315;48.274;-1.900;2022-07-24T07:04:03;932.15;;;783.40;;
25365;SDS011;13315;48.274;-1.900;2022-07-24T07:06:30;932.47;;;792.10;;
25365;SDS011;13315;48.274;-1.900;2022-07-24T07:08:56;938.20;;;800.35;;
25365;SDS011;13315;48.274;-1.900;2022-07-24T07:11:22;933.78;;;794.55;;
25365;SDS011;13315;48.274;-1.900;2022-07-24T07:13:48;957.85;;;810.08;;
25365;SDS011;13315;48.274;-1.900;2022-07-24T07:16:14;953.70;;;805.92;;
25365;SDS011;13315;48.274;-1.900;2022-07-24T07:18:40;966.33;;;821.83;;
25365;SDS011;13315;48.274;-1.900;2022-07-24T07:21:07;950.63;;;808.97;;
25365;SDS011;13315;48.274;-1.900;2022-07-24T07:23:33;935.80;;;803.22;;
25365;SDS011;13315;48.274;-1.900;2022-07-24T07:25:59;933.22;;;803.22;;
25365;SDS011;13315;48.274;-1.900;2022-07-24T07:28:25;912.70;;;806.47;;
25365;SDS011;13315;48.274;-1.900;2022-07-24T07:30:51;953.88;;;827.53;;
25365;SDS011;13315;48.274;-1.900;2022-07-24T07:33:18;947.53;;;825.08;;
25365;SDS011;13315;48.274;-1.900;2022-07-24T07:35:44;932.22;;;812.67;;
25365;SDS011;13315;48.274;-1.900;2022-07-24T07:38:10;934.15;;;816.95;;
25365;SDS011;13315;48.274;-1.900;2022-07-24T07:40:36;908.72;;;804.30;;
25365;SDS011;13315;48.274;-1.900;2022-07-24T07:43:02;912.47;;;803.42;;
25365;SDS011;13315;48.274;-1.900;2022-07-24T07:45:28;939.67;;;823.15;;
25365;SDS011;13315;48.274;-1.900;2022-07-24T07:47:54;921.35;;;807.30;;
25365;SDS011;13315;48.274;-1.900;2022-07-24T07:50:20;949.05;;;826.20;;
25365;SDS011;13315;48.274;-1.900;2022-07-24T07:52:46;961.17;;;826.70;;
25365;SDS011;13315;48.274;-1.900;2022-07-24T07:55:12;961.28;;;830.05;;
25365;SDS011;13315;48.274;-1.900;2022-07-24T07:57:39;947.78;;;811.58;;
25365;SDS011;13315;48.274;-1.900;2022-07-24T08:00:07;929.83;;;815.00;;
25365;SDS011;13315;48.274;-1.900;2022-07-24T08:02:33;925.35;;;811.15;;
25365;SDS011;13315;48.274;-1.900;2022-07-24T08:04:59;930.42;;;813.63;;
25365;SDS011;13315;48.274;-1.900;2022-07-24T08:07:25;925.28;;;816.03;;
25365;SDS011;13315;48.274;-1.900;2022-07-24T08:09:51;959.33;;;842.28;;
25365;SDS011;13315;48.274;-1.900;2022-07-24T08:12:17;950.17;;;834.22;;
25365;SDS011;13315;48.274;-1.900;2022-07-24T08:14:43;953.70;;;840.58;;
25365;SDS011;13315;48.274;-1.900;2022-07-24T08:17:09;927.22;;;820.40;;
25365;SDS011;13315;48.274;-1.900;2022-07-24T08:19:36;919.03;;;817.72;;
25365;SDS011;13315;48.274;-1.900;2022-07-24T08:22:03;926.58;;;824.92;;
25365;SDS011;13315;48.274;-1.900;2022-07-24T08:24:30;930.22;;;827.08;;
25365;SDS011;13315;48.274;-1.900;2022-07-24T08:26:57;932.03;;;830.15;;
25365;SDS011;13315;48.274;-1.900;2022-07-24T08:29:23;948.47;;;843.08;;
25365;SDS011;13315;48.274;-1.900;2022-07-24T08:31:50;956.58;;;848.65;;
25365;SDS011;13315;48.274;-1.900;2022-07-24T08:34:16;954.60;;;847.92;;
25365;SDS011;13315;48.274;-1.900;2022-07-24T08:36:42;953.55;;;848.45;;
25365;SDS011;13315;48.274;-1.900;2022-07-24T08:39:13;952.28;;;848.05;;
25365;SDS011;13315;48.274;-1.900;2022-07-24T08:41:40;940.13;;;837.42;;
25365;SDS011;13315;48.274;-1.900;2022-07-24T08:44:07;940.78;;;838.17;;
25365;SDS011;13315;48.274;-1.900;2022-07-24T08:46:35;936.83;;;834.28;;
25365;SDS011;13315;48.274;-1.900;2022-07-24T08:49:03;932.20;;;829.40;;
25365;SDS011;13315;48.274;-1.900;2022-07-24T08:51:31;962.23;;;857.80;;
25365;SDS011;13315;48.274;-1.900;2022-07-24T08:53:58;949.17;;;844.72;;
25365;SDS011;13315;48.274;-1.900;2022-07-24T08:56:25;966.63;;;859.17;;
25365;SDS011;13315;48.274;-1.900;2022-07-24T08:58:52;972.22;;;860.05;;
25365;SDS011;13315;48.274;-1.900;2022-07-24T09:01:18;960.65;;;849.33;;
25365;SDS011;13315;48.274;-1.900;2022-07-24T09:03:45;956.63;;;851.53;;
25365;SDS011;13315;48.274;-1.900;2022-07-24T09:06:12;957.22;;;853.95;;
25365;SDS011;13315;48.274;-1.900;2022-07-24T09:08:42;960.42;;;856.20;;
25365;SDS011;13315;48.274;-1.900;2022-07-24T09:11:09;957.08;;;853.47;;
25365;SDS011;13315;48.274;-1.900;2022-07-24T09:13:36;950.10;;;847.67;;
25365;SDS011;13315;48.274;-1.900;2022-07-24T09:16:21;973.13;;;866.20;;
25365;SDS011;13315;48.274;-1.900;2022-07-24T09:18:49;966.97;;;859.67;;
25365;SDS011;13315;48.274;-1.900;2022-07-24T09:21:15;975.72;;;869.05;;
25365;SDS011;13315;48.274;-1.900;2022-07-24T09:23:42;968.05;;;862.50;;
25365;SDS011;13315;48.274;-1.900;2022-07-24T09:26:08;965.78;;;861.35;;
25365;SDS011;13315;48.274;-1.900;2022-07-24T09:28:56;966.28;;;863.22;;
25365;SDS011;13315;48.274;-1.900;2022-07-24T09:31:21;970.88;;;864.00;;
25365;SDS011;13315;48.274;-1.900;2022-07-24T09:33:48;983.60;;;873.38;;
25365;SDS011;13315;48.274;-1.900;2022-07-24T09:36:15;977.20;;;871.28;;
25365;SDS011;13315;48.274;-1.900;2022-07-24T09:38:48;980.08;;;874.00;;
25365;SDS011;13315;48.274;-1.900;2022-07-24T09:41:21;970.72;;;864.58;;
25365;SDS011;13315;48.274;-1.900;2022-07-24T09:43:58;984.42;;;876.58;;
25365;SDS011;13315;48.274;-1.900;2022-07-24T09:46:24;989.63;;;879.03;;
25365;SDS011;13315;48.274;-1.900;2022-07-24T09:48:55;989.00;;;880.92;;
25365;SDS011;13315;48.274;-1.900;2022-07-24T09:51:22;982.10;;;874.45;;
25365;SDS011;13315;48.274;-1.900;2022-07-24T09:53:53;951.83;;;850.10;;
25365;SDS011;13315;48.274;-1.900;2022-07-24T09:56:20;928.88;;;829.65;;
25365;SDS011;13315;48.274;-1.900;2022-07-24T10:01:13;925.00;;;827.95;;
25365;SDS011;13315;48.274;-1.900;2022-07-24T10:03:39;957.53;;;857.72;;
25365;SDS011;13315;48.274;-1.900;2022-07-24T10:06:09;964.28;;;863.65;;
25365;SDS011;13315;48.274;-1.900;2022-07-24T10:08:37;975.33;;;873.63;;
25365;SDS011;13315;48.274;-1.900;2022-07-24T10:11:03;976.95;;;874.90;;
25365;SDS011;13315;48.274;-1.900;2022-07-24T10:13:29;994.47;;;889.17;;
25365;SDS011;13315;48.274;-1.900;2022-07-24T10:18:47;979.63;;;876.92;;
25365;SDS011;13315;48.274;-1.900;2022-07-24T10:26:11;991.38;;;886.83;;
25365;SDS011;13315;48.274;-1.900;2022-07-24T10:28:42;978.50;;;875.42;;
25365;SDS011;13315;48.274;-1.900;2022-07-24T10:31:09;967.58;;;866.80;;
25365;SDS011;13315;48.274;-1.900;2022-07-24T10:33:36;987.22;;;883.92;;
25365;SDS011;13315;48.274;-1.900;2022-07-24T10:36:04;1009.38;;;903.92;;
25365;SDS011;13315;48.274;-1.900;2022-07-24T10:38:36;1022.03;;;914.00;;
25365;SDS011;13315;48.274;-1.900;2022-07-24T10:41:12;996.63;;;893.83;;
25365;SDS011;13315;48.274;-1.900;2022-07-24T10:43:39;1002.80;;;899.13;;
25365;SDS011;13315;48.274;-1.900;2022-07-24T10:48:35;1015.60;;;908.70;;
25365;SDS011;13315;48.274;-1.900;2022-07-24T10:51:06;1014.70;;;908.10;;
25365;SDS011;13315;48.274;-1.900;2022-07-24T10:56:18;1004.00;;;899.50;;
25365;SDS011;13315;48.274;-1.900;2022-07-24T11:03:55;1023.30;;;913.88;;
25365;SDS011;13315;48.274;-1.900;2022-07-24T11:09:08;1005.92;;;900.53;;
25365;SDS011;13315;48.274;-1.900;2022-07-24T11:11:39;1022.17;;;914.80;;
25365;SDS011;13315;48.274;-1.900;2022-07-24T11:14:05;1007.63;;;902.38;;
25365;SDS011;13315;48.274;-1.900;2022-07-24T11:16:32;1015.90;;;908.58;;
25365;SDS011;13315;48.274;-1.900;2022-07-24T11:26:40;1012.42;;;906.70;;
25365;SDS011;13315;48.274;-1.900;2022-07-24T11:31:45;997.92;;;896.42;;
25365;SDS011;13315;48.274;-1.900;2022-07-24T11:34:11;1001.90;;;900.38;;
25365;SDS011;13315;48.274;-1.900;2022-07-24T11:36:41;1010.80;;;908.17;;
25365;SDS011;13315;48.274;-1.900;2022-07-24T11:39:08;1006.30;;;903.15;;
25365;SDS011;13315;48.274;-1.900;2022-07-24T11:41:56;1033.20;;;926.13;;
25365;SDS011;13315;48.274;-1.900;2022-07-24T11:44:25;1023.45;;;916.95;;
25365;SDS011;13315;48.274;-1.900;2022-07-24T11:46:53;1021.92;;;914.90;;
25365;SDS011;13315;48.274;-1.900;2022-07-24T11:51:49;1009.78;;;904.53;;
25365;SDS011;13315;48.274;-1.900;2022-07-24T11:54:26;1019.03;;;912.72;;
25365;SDS011;13315;48.274;-1.900;2022-07-24T11:56:52;1020.47;;;914.25;;
25365;SDS011;13315;48.274;-1.900;2022-07-24T11:59:23;1008.33;;;903.22;;
25365;SDS011;13315;48.274;-1.900;2022-07-24T12:01:49;1021.33;;;915.53;;
25365;SDS011;13315;48.274;-1.900;2022-07-24T12:04:19;1022.78;;;916.65;;
25365;SDS011;13315;48.274;-1.900;2022-07-24T12:06:46;1022.63;;;916.47;;
25365;SDS011;13315;48.274;-1.900;2022-07-24T12:09:12;1018.13;;;911.55;;
25365;SDS011;13315;48.274;-1.900;2022-07-24T12:11:38;1044.88;;;934.83;;
25365;SDS011;13315;48.274;-1.900;2022-07-24T12:14:14;1036.13;;;926.58;;
25365;SDS011;13315;48.274;-1.900;2022-07-24T12:16:41;1023.75;;;916.08;;
25365;SDS011;13315;48.274;-1.900;2022-07-24T12:19:17;1049.18;;;938.35;;
25365;SDS011;13315;48.274;-1.900;2022-07-24T12:21:44;1026.50;;;919.53;;
25365;SDS011;13315;48.274;-1.900;2022-07-24T12:24:11;1025.22;;;918.45;;
25365;SDS011;13315;48.274;-1.900;2022-07-24T12:26:53;1043.57;;;932.42;;
25365;SDS011;13315;48.274;-1.900;2022-07-24T12:29:20;1027.63;;;920.00;;
25365;SDS011;13315;48.274;-1.900;2022-07-24T12:31:46;1018.75;;;911.25;;
25365;SDS011;13315;48.274;-1.900;2022-07-24T12:34:12;1025.43;;;917.33;;
25365;SDS011;13315;48.274;-1.900;2022-07-24T12:36:39;1035.47;;;924.05;;
25365;SDS011;13315;48.274;-1.900;2022-07-24T12:39:06;1036.50;;;924.88;;
25365;SDS011;13315;48.274;-1.900;2022-07-24T12:41:40;1043.50;;;930.25;;
25365;SDS011;13315;48.274;-1.900;2022-07-24T12:44:07;1027.32;;;916.63;;
25365;SDS011;13315;48.274;-1.900;2022-07-24T12:46:34;1036.70;;;924.10;;
25365;SDS011;13315;48.274;-1.900;2022-07-24T12:49:01;1034.05;;;921.45;;
25365;SDS011;13315;48.274;-1.900;2022-07-24T12:52:18;1051.97;;;936.58;;
25365;SDS011;13315;48.274;-1.900;2022-07-24T12:54:14;1012.00;;;902.28;;
25365;SDS011;13315;48.274;-1.900;2022-07-24T12:56:41;1022.45;;;910.47;;
25365;SDS011;13315;48.274;-1.900;2022-07-24T12:59:08;1035.82;;;922.65;;
25365;SDS011;13315;48.274;-1.900;2022-07-24T13:01:44;1020.70;;;904.15;;
25365;SDS011;13315;48.274;-1.900;2022-07-24T13:04:11;1023.75;;;900.20;;
25365;SDS011;13315;48.274;-1.900;2022-07-24T13:06:44;1028.38;;;906.63;;
25365;SDS011;13315;48.274;-1.900;2022-07-24T13:09:11;1045.53;;;920.53;;
25365;SDS011;13315;48.274;-1.900;2022-07-24T13:11:38;1027.55;;;915.42;;
25365;SDS011;13315;48.274;-1.900;2022-07-24T13:14:05;1012.15;;;896.88;;
25365;SDS011;13315;48.274;-1.900;2022-07-24T13:16:32;1026.18;;;912.75;;
25365;SDS011;13315;48.274;-1.900;2022-07-24T13:18:59;1034.05;;;907.67;;
25365;SDS011;13315;48.274;-1.900;2022-07-24T13:21:25;1002.17;;;892.30;;
25365;SDS011;13315;48.274;-1.900;2022-07-24T13:23:52;1009.08;;;895.70;;
25365;SDS011;13315;48.274;-1.900;2022-07-24T13:26:18;1000.47;;;880.08;;
25365;SDS011;13315;48.274;-1.900;2022-07-24T13:28:44;999.15;;;874.47;;
25365;SDS011;13315;48.274;-1.900;2022-07-24T13:31:11;1035.30;;;903.95;;
25365;SDS011;13315;48.274;-1.900;2022-07-24T13:33:37;1020.85;;;888.53;;
25365;SDS011;13315;48.274;-1.900;2022-07-24T13:36:03;1004.45;;;889.92;;
25365;SDS011;13315;48.274;-1.900;2022-07-24T13:38:30;1007.63;;;881.03;;
25365;SDS011;13315;48.274;-1.900;2022-07-24T13:40:56;1007.58;;;891.42;;
25365;SDS011;13315;48.274;-1.900;2022-07-24T13:43:22;996.40;;;880.50;;
25365;SDS011;13315;48.274;-1.900;2022-07-24T13:45:50;992.53;;;878.30;;
25365;SDS011;13315;48.274;-1.900;2022-07-24T13:48:16;998.20;;;875.50;;
25365;SDS011;13315;48.274;-1.900;2022-07-24T13:50:43;1027.70;;;885.38;;
25365;SDS011;13315;48.274;-1.900;2022-07-24T13:53:09;989.75;;;872.85;;
25365;SDS011;13315;48.274;-1.900;2022-07-24T13:55:35;1026.32;;;911.55;;
25365;SDS011;13315;48.274;-1.900;2022-07-24T13:58:01;1017.95;;;897.40;;
25365;SDS011;13315;48.274;-1.900;2022-07-24T14:00:27;1003.58;;;892.97;;
25365;SDS011;13315;48.274;-1.900;2022-07-24T14:02:53;1001.85;;;888.90;;
25365;SDS011;13315;48.274;-1.900;2022-07-24T14:05:22;994.83;;;884.90;;
25365;SDS011;13315;48.274;-1.900;2022-07-24T14:07:49;990.67;;;880.10;;
25365;SDS011;13315;48.274;-1.900;2022-07-24T14:10:15;1000.10;;;878.53;;
25365;SDS011;13315;48.274;-1.900;2022-07-24T14:12:41;1020.63;;;886.13;;
25365;SDS011;13315;48.274;-1.900;2022-07-24T14:15:07;1014.22;;;888.15;;
25365;SDS011;13315;48.274;-1.900;2022-07-24T14:17:34;1055.07;;;906.15;;